Millersville, MD

5:31 PM EST on February 05, 2016 (GMT -0500)
Akita Shangri La | | Change Station
CLOSE
Current Station
Personal Weather Station
Location: Millersville, MD
Elevation: 115 ft
Nearby Weather Stations

Elev 115 ft 39.06 °N, 76.64 °W | Updated 24 seconds ago

Clear
Clear
39.4 °F
Feels Like 39 °F
N
1.3
Wind Variable Wind from SSE
Gusts 2.5 mph

Today
High -- | Low -- °F
--% Chance of Precip.
Yesterday
High -- | Low -- °F
Precip. -- in
Pressure 30.35 in
Visibility 10.0 miles
Clouds Clear
Windchill 39 °F
Dew Point 16 °F
Humidity 39%
Rainfall 0.22 in
Snow Depth Not available.
7:09 AM 5:31 PM
Waning Crescent, 9% visible
METAR KFME 052221Z AUTO 27007KT 10SM CLR 02/M06 A3035 RMK AO1
Pressure 30.35 in
Visibility 10.0 miles
Clouds Clear
Windchill 39 °F
Dew Point 16 °F
Humidity 39%
Rainfall 0.22 in
Snow Depth Not available.
7:09 AM 5:31 PM
Waning Crescent, 9% visible
METAR KFME 052221Z AUTO 27007KT 10SM CLR 02/M06 A3035 RMK AO1

10-Day Weather Forecast

Almanac

Astronomy

Feb. 05, 2016 Rise Set
Actual Time
Civil Twilight
Nautical Twilight
Astronomical Twilight
Moon
Length of Visible Light
Length of Day
Tomorrow will be .
, % of the Moon is Illuminated

Today's Extremes

State Highs State Lows

Community

WunderPhotos

Upload Photos

1,890,879 photos uploaded!

WunderBlog® & News

Nearby

Air Quality

  Air Quality AQ Index Pollutant
Not available.

Snow Depth

Station Depth Elevation

Earthquake Activity

City Distance Mag. Time & Date
Minimum magnitude displayed is 2.5.

Coastal Water Temperatures

Place Temperature

Stations

Nearby Weather Stations

Station Location Temp. Windchill Dew Point Humidity Wind Precip. Elev Updated Type
                   

Watches & Warnings

There are currently no watches in effect.